Parry Sound, Canada
Current Conditions -  °F | °C
As of 11:45 AM on Friday 21 Nov 2014 (Local Time) from CYQA Reporting Station
Light Snow Light Snow  
Wind Chill:   Ceiling: 3500
Heat Index: 18°   Visibility: 9mi
Dew Point: 12°   Wind: 7mph
Humidity: 79%   Direction: 190°S
Pressure: 30.29"   Gusts: NA
Location:  45.34°N, 80.04°W
Report Text: CYQA 211645Z AUTO 19006KT 9SM -SN FEW026 BKN035 OVC060 M08/M11 A3029 RMK SLP276
Loading
Personal Weather Stations






























Interactive Weather Map New forecast layout! Learn more

10-Day Weather Forecast

Advertisements
Track Severe Weather on mobile